Time;durP1;ratioP1;P1;durP2;ratioP2;P2;SDS_P1;SDS_P2;PMS_P1;PMS_P2;Temp;Humidity;BMP_temperature;BMP_pressure;BME280_temperature;BME280_humidity;BME280_pressure;Samples;Min_cycle;Max_cycle;Signal;HPM_P1;HPM_P2
2023/01/10 00:04:52;;;;;;;7.15;4.45;;;9.20;88.10;;;;;;10827873;32;20033;-77
2023/01/10 00:10:55;;;;;;;5.45;3.35;;;9.20;87.70;;;;;;10789830;33;20418;-77
2023/01/10 00:16:57;;;;;;;8.40;5.68;;;9.10;87.90;;;;;;10788876;33;20389;-77
2023/01/10 00:22:59;;;;;;;6.35;4.10;;;9.10;88.10;;;;;;10843531;27;20054;-77
2023/01/10 00:29:02;;;;;;;5.50;3.40;;;9.20;88.10;;;;;;10789378;33;20016;-77
2023/01/10 00:35:05;;;;;;;4.80;2.62;;;9.20;88.00;;;;;;10789052;33;20351;-76
2023/01/10 00:43:55;;;;;;;5.45;2.87;;;9.10;88.10;;;;;;10775636;33;20054;-77
2023/01/10 00:47:29;;;;;;;4.82;2.42;;;9.10;88.20;;;;;;10788884;33;20012;-77
2023/01/10 00:53:31;;;;;;;4.22;2.78;;;9.10;88.10;;;;;;10788608;33;20335;-77
2023/01/10 00:59:33;;;;;;;4.25;3.00;;;9.10;88.30;;;;;;10788484;33;20035;-77
2023/01/10 01:05:47;;;;;;;5.75;2.50;;;9.00;88.30;;;;;;10775154;33;20055;-76
2023/01/10 01:11:49;;;;;;;3.28;2.33;;;9.10;88.30;;;;;;10788113;33;20035;-77
2023/01/10 01:17:51;;;;;;;3.97;2.30;;;9.10;88.20;;;;;;10784070;33;20335;-76
2023/01/10 01:23:57;;;;;;;3.92;2.42;;;9.10;88.20;;;;;;10774875;33;20025;-76
2023/01/10 01:30:00;;;;;;;5.35;3.00;;;9.00;88.20;;;;;;10784955;33;20342;-76
2023/01/10 01:36:06;;;;;;;5.28;2.87;;;9.20;88.20;;;;;;10787591;33;20020;-77
2023/01/10 01:42:22;;;;;;;4.28;2.83;;;9.40;87.90;;;;;;10774365;33;20020;-77
2023/01/10 01:48:44;;;;;;;5.55;3.17;;;9.40;87.60;;;;;;10787272;33;20039;-76
2023/01/10 01:54:52;;;;;;;5.62;3.60;;;9.30;87.50;;;;;;10787193;33;20017;-76
2023/01/10 02:00:54;;;;;;;3.03;1.90;;;9.30;87.40;;;;;;10787078;33;20011;-77
2023/01/10 02:06:58;;;;;;;3.70;2.50;;;9.40;87.30;;;;;;10773671;33;20437;-77
2023/01/10 02:13:04;;;;;;;3.08;1.83;;;9.20;87.50;;;;;;10786716;33;20081;-76
2023/01/10 02:19:33;;;;;;;5.55;3.67;;;9.00;87.70;;;;;;10773520;33;20082;-76
2023/01/10 02:26:09;;;;;;;4.78;2.40;;;9.00;87.60;;;;;;10786490;33;20308;-76
2023/01/10 02:32:22;;;;;;;5.75;3.12;;;9.10;87.40;;;;;;10786455;33;20039;-76
2023/01/10 02:38:41;;;;;;;4.00;2.95;;;9.20;87.50;;;;;;10789342;33;20327;-76
2023/01/10 02:44:57;;;;;;;5.73;3.70;;;9.10;87.50;;;;;;10779068;33;20055;-76
2023/01/10 02:51:27;;;;;;;4.50;3.05;;;9.10;87.30;;;;;;10779077;33;20035;-76
2023/01/10 02:57:55;;;;;;;5.82;3.17;;;9.20;87.20;;;;;;10790384;33;20407;-76
2023/01/10 03:04:11;;;;;;;5.82;3.50;;;9.00;87.20;;;;;;10778527;33;20058;-76
2023/01/10 03:10:14;;;;;;;6.97;4.18;;;8.80;87.50;;;;;;10778449;33;20066;-76
2023/01/10 03:16:19;;;;;;;6.85;4.57;;;8.80;87.60;;;;;;10791418;33;20162;-76
2023/01/10 03:22:23;;;;;;;4.45;2.87;;;8.80;87.50;;;;;;10791207;33;20024;-76
2023/01/10 03:28:50;;;;;;;6.85;4.32;;;8.70;87.30;;;;;;10791070;33;20044;-76
2023/01/10 03:34:53;;;;;;;5.95;3.75;;;8.70;87.40;;;;;;10790982;33;20337;-76
2023/01/10 03:41:18;;;;;;;5.22;3.15;;;8.60;87.10;;;;;;10790852;33;20028;-76
2023/01/10 03:47:26;;;;;;;8.80;5.12;;;8.60;87.50;;;;;;10791652;33;20009;-76
2023/01/10 03:53:29;;;;;;;5.65;3.53;;;8.40;87.30;;;;;;10790122;33;20033;-76
2023/01/10 03:59:31;;;;;;;9.32;4.47;;;8.20;87.30;;;;;;10790073;33;20012;-76
2023/01/10 04:05:33;;;;;;;7.68;4.72;;;8.10;87.50;;;;;;10790054;33;20029;-76
2023/01/10 04:11:35;;;;;;;10.90;6.55;;;7.90;87.50;;;;;;10776759;32;20050;-76
2023/01/10 04:17:37;;;;;;;17.85;10.50;;;7.70;86.60;;;;;;10786087;33;20381;-76
2023/01/10 04:23:39;;;;;;;11.52;7.28;;;7.60;87.40;;;;;;10789500;33;20020;-76
2023/01/10 04:29:42;;;;;;;11.48;6.25;;;7.50;87.50;;;;;;10789222;33;20033;-76
2023/01/10 04:35:48;;;;;;;10.15;7.85;;;7.60;87.80;;;;;;10789036;33;20024;-76
2023/01/10 04:41:50;;;;;;;8.73;5.10;;;8.00;88.00;;;;;;10788954;33;20029;-76
2023/01/10 04:47:54;;;;;;;13.70;10.80;;;8.20;87.50;;;;;;10788850;33;20016;-76
2023/01/10 04:54:06;;;;;;;11.07;7.55;;;7.90;87.40;;;;;;10788766;33;20056;-76
2023/01/10 05:00:09;;;;;;;8.13;5.10;;;8.20;87.60;;;;;;10787991;33;20050;-76
2023/01/10 05:06:11;;;;;;;10.82;7.03;;;8.20;87.10;;;;;;10788346;33;20024;-76
2023/01/10 05:12:14;;;;;;;9.13;5.90;;;8.10;87.20;;;;;;10788193;33;20037;-76
2023/01/10 05:18:18;;;;;;;11.90;7.20;;;7.90;87.00;;;;;;10787953;33;20025;-76
2023/01/10 05:24:20;;;;;;;10.85;7.22;;;7.70;87.10;;;;;;10787816;33;20047;-76
2023/01/10 05:30:22;;;;;;;14.77;11.30;;;8.00;87.50;;;;;;10774512;33;20036;-76
2023/01/10 05:36:24;;;;;;;15.20;11.38;;;7.80;87.20;;;;;;10787703;33;20048;-73
2023/01/10 05:42:26;;;;;;;11.25;7.00;;;8.20;87.50;;;;;;10775314;32;20347;-73
2023/01/10 05:48:28;;;;;;;9.18;6.22;;;8.60;86.50;;;;;;10787289;33;20337;-73
2023/01/10 05:54:30;;;;;;;18.23;11.77;;;8.00;86.20;;;;;;10773798;33;20075;-73
2023/01/10 06:00:32;;;;;;;12.25;9.00;;;7.90;87.00;;;;;;10787059;33;20063;-73
2023/01/10 06:06:33;;;;;;;9.63;6.97;;;8.30;87.00;;;;;;10773722;33;20055;-73
2023/01/10 06:12:38;;;;;;;9.18;6.72;;;8.20;86.50;;;;;;10789108;33;20050;-73
2023/01/10 06:18:40;;;;;;;15.60;11.38;;;7.90;86.40;;;;;;10779646;32;20098;-73
2023/01/10 06:24:42;;;;;;;12.25;8.60;;;7.70;86.70;;;;;;10792883;33;20047;-73
2023/01/10 06:30:55;;;;;;;11.50;8.10;;;8.10;86.80;;;;;;10792553;33;20327;-73
2023/01/10 06:36:58;;;;;;;10.20;6.50;;;8.30;86.30;;;;;;10792334;33;20297;-73
2023/01/10 06:43:00;;;;;;;12.70;7.10;;;7.90;85.60;;;;;;10792152;33;20033;-73
2023/01/10 06:49:02;;;;;;;13.75;10.02;;;8.20;86.30;;;;;;10783269;33;20020;-73
2023/01/10 06:55:07;;;;;;;12.07;8.52;;;8.50;85.60;;;;;;10738590;33;20098;-73
2023/01/10 07:01:15;;;;;;;11.63;8.23;;;8.50;85.00;;;;;;10742036;32;20063;-73
2023/01/10 07:07:17;;;;;;;11.70;9.00;;;8.60;85.00;;;;;;10754943;33;20075;-73
2023/01/10 07:13:19;;;;;;;11.55;9.20;;;8.50;85.00;;;;;;10751616;33;20051;-73
2023/01/10 07:19:21;;;;;;;18.98;13.38;;;8.80;84.50;;;;;;10742088;32;20037;-73
2023/01/10 07:25:25;;;;;;;25.77;18.40;;;9.00;84.60;;;;;;10738438;33;20040;-73
2023/01/10 07:31:27;;;;;;;20.80;15.00;;;9.20;84.40;;;;;;10750780;33;20057;-73
2023/01/10 07:37:29;;;;;;;16.60;11.10;;;9.20;83.90;;;;;;10737424;33;20208;-76
2023/01/10 07:43:32;;;;;;;22.37;17.15;;;9.10;83.70;;;;;;10754133;33;20025;-76
2023/01/10 07:49:34;;;;;;;15.85;12.90;;;8.90;84.40;;;;;;10751573;33;20398;-76
2023/01/10 07:55:38;;;;;;;18.17;13.90;;;9.20;84.30;;;;;;10753784;33;20217;-76
2023/01/10 08:01:40;;;;;;;14.63;11.93;;;9.20;84.30;;;;;;10773302;32;20051;-76
2023/01/10 08:07:43;;;;;;;18.40;12.65;;;8.90;84.60;;;;;;10790083;33;20425;-76
2023/01/10 08:13:45;;;;;;;15.55;12.20;;;8.80;84.70;;;;;;10789757;33;20008;-76
2023/01/10 08:19:55;;;;;;;22.60;15.20;;;8.50;85.30;;;;;;10636880;33;12070801;-75
2023/01/10 08:25:59;;;;;;;17.20;14.07;;;8.70;85.50;;;;;;10864279;32;20101;-75
2023/01/10 08:32:01;;;;;;;17.10;13.20;;;8.70;85.40;;;;;;10864880;32;20031;-75
2023/01/10 08:38:03;;;;;;;19.52;14.18;;;8.90;85.40;;;;;;10864472;32;20028;-76
2023/01/10 08:44:06;;;;;;;25.83;19.85;;;8.80;85.50;;;;;;10851776;32;20058;-75
2023/01/10 08:50:09;;;;;;;19.90;13.98;;;9.10;86.20;;;;;;10895510;32;20085;-75
2023/01/10 08:56:11;;;;;;;16.12;11.63;;;9.20;86.00;;;;;;10904254;32;20035;-75
2023/01/10 09:02:14;;;;;;;19.12;13.50;;;9.30;86.00;;;;;;10903607;32;20022;-75
2023/01/10 09:08:16;;;;;;;16.98;12.18;;;9.20;86.10;;;;;;10904635;32;20042;-76
2023/01/10 09:14:18;;;;;;;14.82;10.43;;;9.50;86.60;;;;;;10904526;32;20073;-76
2023/01/10 09:20:23;;;;;;;13.38;9.05;;;9.50;86.50;;;;;;10886743;32;20046;-75
2023/01/10 09:26:25;;;;;;;12.68;8.88;;;9.40;86.30;;;;;;10901002;32;20157;-75
2023/01/10 09:32:27;;;;;;;14.82;9.18;;;9.50;87.00;;;;;;10890508;32;20043;-76
2023/01/10 09:38:30;;;;;;;15.18;9.50;;;9.70;87.00;;;;;;10901541;32;20027;-76
2023/01/10 09:44:50;;;;;;;10.40;7.65;;;9.70;87.00;;;;;;10902583;32;20026;-76
2023/01/10 09:51:18;;;;;;;11.77;8.57;;;9.70;87.20;;;;;;10909659;32;20027;-76
2023/01/10 09:57:22;;;;;;;12.68;7.65;;;9.80;87.50;;;;;;10911141;32;20031;-76
2023/01/10 10:03:35;;;;;;;16.98;12.65;;;9.80;87.70;;;;;;10911126;32;20015;-76
2023/01/10 10:09:38;;;;;;;14.15;11.63;;;9.80;88.00;;;;;;10893958;32;20053;-76
2023/01/10 10:16:09;;;;;;;13.88;9.27;;;9.90;88.20;;;;;;10910470;32;20016;-76
2023/01/10 10:22:40;;;;;;;14.60;9.85;;;10.10;88.20;;;;;;10793360;32;20052;-76
2023/01/10 10:29:10;;;;;;;11.38;9.38;;;10.20;88.10;;;;;;10781763;32;20029;-76
2023/01/10 10:35:34;;;;;;;11.60;8.07;;;10.30;88.40;;;;;;10771931;33;20443;-76
2023/01/10 10:41:42;;;;;;;12.85;10.50;;;10.40;88.60;;;;;;10776024;32;20147;-76
2023/01/10 10:47:49;;;;;;;15.13;10.83;;;10.60;88.50;;;;;;10792761;33;20051;-77
2023/01/10 10:53:54;;;;;;;12.10;8.40;;;10.70;88.60;;;;;;10780413;33;20055;-77
2023/01/10 10:59:59;;;;;;;10.05;7.15;;;10.80;88.60;;;;;;10862236;32;20046;-76
2023/01/10 11:06:01;;;;;;;10.20;7.28;;;11.00;88.60;;;;;;10871607;32;20020;-76
2023/01/10 11:12:05;;;;;;;12.37;8.70;;;11.20;88.30;;;;;;10870697;32;20093;-77
2023/01/10 11:18:13;;;;;;;8.60;4.85;;;11.10;88.20;;;;;;10901657;32;20046;-76
2023/01/10 11:24:22;;;;;;;9.50;6.97;;;11.20;88.40;;;;;;10904254;32;20390;-76
2023/01/10 11:30:31;;;;;;;12.68;10.23;;;11.40;88.20;;;;;;10906529;32;20019;-77
2023/01/10 11:37:02;;;;;;;10.00;7.80;;;11.50;87.90;;;;;;10907727;32;20338;-76
2023/01/10 11:43:33;;;;;;;9.82;7.43;;;11.60;87.90;;;;;;10891767;32;20028;-76
2023/01/10 11:49:42;;;;;;;15.77;9.65;;;11.60;87.70;;;;;;10894269;32;20043;-76
2023/01/10 11:55:47;;;;;;;9.50;6.70;;;11.70;87.60;;;;;;10907039;32;20049;-76
2023/01/10 12:02:03;;;;;;;8.68;5.90;;;11.80;87.70;;;;;;10906358;32;20028;-76
2023/01/10 12:08:08;;;;;;;11.27;6.47;;;12.00;87.10;;;;;;10904631;32;20054;-76
2023/01/10 12:14:19;;;;;;;9.85;6.45;;;12.00;87.00;;;;;;10904254;32;20439;-76
2023/01/10 12:20:22;;;;;;;7.47;4.80;;;12.00;87.30;;;;;;10906031;32;20317;-76
2023/01/10 12:26:29;;;;;;;11.30;7.05;;;12.00;87.00;;;;;;10892329;32;20065;-76
2023/01/10 12:32:40;;;;;;;11.50;5.95;;;12.00;87.20;;;;;;10905087;32;20020;-76
2023/01/10 12:39:05;;;;;;;9.65;6.40;;;12.00;87.50;;;;;;10906222;32;20050;-76
2023/01/10 12:45:10;;;;;;;7.37;5.18;;;12.00;87.40;;;;;;10905461;32;20393;-76
2023/01/10 12:51:17;;;;;;;6.40;3.85;;;12.20;87.60;;;;;;10904929;32;20019;-76
2023/01/10 12:57:40;;;;;;;7.15;5.05;;;12.20;87.10;;;;;;10904786;32;20019;-76
2023/01/10 13:03:44;;;;;;;8.48;5.18;;;12.20;87.20;;;;;;10890967;32;20341;-74
2023/01/10 13:09:47;;;;;;;8.63;4.93;;;12.20;86.90;;;;;;10904432;32;20015;-74
2023/01/10 13:15:57;;;;;;;10.52;7.82;;;12.20;86.90;;;;;;10904099;32;20019;-74
2023/01/10 13:22:34;;;;;;;13.02;9.70;;;12.20;86.60;;;;;;10903649;32;20046;-74
2023/01/10 13:28:40;;;;;;;10.55;8.20;;;12.30;86.10;;;;;;10785760;32;20028;-74
2023/01/10 13:34:42;;;;;;;9.82;7.07;;;12.30;86.00;;;;;;10787249;32;20036;-73
2023/01/10 13:41:07;;;;;;;7.82;5.45;;;12.50;86.20;;;;;;10774759;32;20395;-74
2023/01/10 13:47:09;;;;;;;11.95;8.27;;;12.70;85.90;;;;;;10788359;32;20444;-74
2023/01/10 13:53:13;;;;;;;8.30;5.85;;;12.70;85.90;;;;;;10784732;32;20024;-74
2023/01/10 14:05:47;;;;;;;8.40;6.15;;;12.70;85.40;;;;;;10903603;32;20053;-74
2023/01/10 14:11:57;;;;;;;7.15;4.90;;;12.70;85.40;;;;;;10889717;32;20405;-74
2023/01/10 14:18:18;;;;;;;9.27;5.72;;;12.80;85.50;;;;;;10903315;32;20058;-74
2023/01/10 14:24:27;;;;;;;7.70;4.62;;;12.90;85.60;;;;;;10903206;32;20050;-74
2023/01/10 14:30:32;;;;;;;8.27;5.45;;;13.30;85.10;;;;;;10885367;32;20055;-74
2023/01/10 14:36:45;;;;;;;6.70;4.07;;;13.60;85.30;;;;;;10873839;32;20035;-74
2023/01/10 14:42:48;;;;;;;6.45;3.87;;;14.00;85.40;;;;;;10881578;32;20051;-75
2023/01/10 14:48:53;;;;;;;6.95;4.93;;;14.50;84.80;;;;;;10909270;32;20068;-74
2023/01/10 14:55:11;;;;;;;7.07;4.35;;;14.60;85.00;;;;;;10893995;32;20368;-74
2023/01/10 15:01:22;;;;;;;6.07;4.18;;;14.10;86.20;;;;;;10908878;32;20007;-74
2023/01/10 15:07:25;;;;;;;9.68;5.30;;;13.70;87.10;;;;;;10893112;32;20066;-74
2023/01/10 15:13:30;;;;;;;9.75;6.82;;;13.40;87.80;;;;;;10893928;32;20341;-74
2023/01/10 15:19:35;;;;;;;8.90;5.78;;;13.30;88.20;;;;;;10899147;32;20443;-74
2023/01/10 15:25:38;;;;;;;6.95;5.18;;;13.40;88.20;;;;;;10894246;32;20030;-74
2023/01/10 15:31:41;;;;;;;8.52;5.10;;;13.50;87.70;;;;;;10907802;32;20020;-74
2023/01/10 15:38:01;;;;;;;10.45;5.97;;;13.10;88.20;;;;;;10891897;32;20035;-74
2023/01/10 15:44:41;;;;;;;8.55;6.15;;;12.70;88.90;;;;;;10907445;32;20341;-74
2023/01/10 15:50:54;;;;;;;7.65;5.28;;;12.40;89.30;;;;;;10719076;33;20387;-74
2023/01/10 15:57:05;;;;;;;8.05;5.78;;;12.20;89.60;;;;;;10706293;33;20036;-74
2023/01/10 16:03:27;;;;;;;10.20;6.10;;;12.00;89.90;;;;;;10718797;33;20067;-74
2023/01/10 16:09:30;;;;;;;10.63;7.22;;;11.80;89.90;;;;;;10706244;33;20430;-73
2023/01/10 16:15:34;;;;;;;8.73;6.87;;;11.70;89.90;;;;;;10717289;33;20063;-74
2023/01/10 16:21:44;;;;;;;10.63;7.78;;;11.60;89.80;;;;;;10740408;27;20170;-74
2023/01/10 16:27:46;;;;;;;17.70;11.20;;;11.50;89.70;;;;;;10752861;33;20017;-74
2023/01/10 16:33:48;;;;;;;10.25;8.27;;;11.40;89.60;;;;;;10739155;33;20051;-74
2023/01/10 16:39:50;;;;;;;18.85;16.00;;;11.40;89.50;;;;;;10749551;33;20410;-74
2023/01/10 16:46:00;;;;;;;12.23;7.87;;;11.20;89.60;;;;;;10752336;33;20042;-74
2023/01/10 16:52:03;;;;;;;14.70;10.18;;;11.20;89.60;;;;;;10752247;33;20012;-74
2023/01/10 16:58:05;;;;;;;10.57;8.13;;;11.10;89.60;;;;;;10751688;32;20048;-74
2023/01/10 17:04:10;;;;;;;9.50;6.95;;;10.90;89.80;;;;;;10885312;32;20333;-74
2023/01/10 17:10:12;;;;;;;10.68;6.68;;;10.70;90.00;;;;;;10903724;32;20015;-74
2023/01/10 17:16:17;;;;;;;11.20;8.25;;;10.70;90.20;;;;;;10888805;32;20027;-74
2023/01/10 17:22:19;;;;;;;10.40;7.75;;;10.70;90.10;;;;;;10760904;32;20048;-74
2023/01/10 17:28:21;;;;;;;9.77;6.82;;;10.70;89.70;;;;;;10751281;33;20039;-74
2023/01/10 17:34:24;;;;;;;9.73;6.53;;;10.70;89.50;;;;;;10751063;33;20016;-74
2023/01/10 17:40:26;;;;;;;10.98;6.18;;;10.60;89.40;;;;;;10750829;33;20039;-74
2023/01/10 17:46:28;;;;;;;8.43;5.95;;;10.60;89.10;;;;;;10750768;33;20043;-74
2023/01/10 17:52:30;;;;;;;6.22;4.93;;;10.50;89.00;;;;;;10736914;33;20029;-74
2023/01/10 17:58:32;;;;;;;6.93;5.18;;;10.30;88.70;;;;;;10750803;33;20021;-74
2023/01/10 18:04:34;;;;;;;8.77;5.53;;;10.20;89.10;;;;;;10750497;33;20024;-74
2023/01/10 18:10:36;;;;;;;15.50;8.35;;;10.20;89.20;;;;;;10762515;32;20300;-74
2023/01/10 18:16:38;;;;;;;9.05;7.03;;;10.00;89.00;;;;;;10908622;32;20022;-74
2023/01/10 18:29:01;;;;;;;10.90;8.45;;;10.00;88.80;;;;;;10910277;32;20027;-74
2023/01/10 18:35:03;;;;;;;10.07;8.63;;;10.00;88.70;;;;;;10863251;32;20044;-74
2023/01/10 18:41:05;;;;;;;16.25;12.75;;;9.90;88.60;;;;;;10756085;33;20020;-74
2023/01/10 18:47:07;;;;;;;13.30;10.60;;;9.80;88.60;;;;;;10755928;33;20039;-74
2023/01/10 18:53:09;;;;;;;15.88;11.18;;;9.70;88.50;;;;;;10755766;33;20438;-74
2023/01/10 18:59:12;;;;;;;15.13;11.63;;;9.60;88.70;;;;;;10755663;33;20338;-74
2023/01/10 19:05:14;;;;;;;16.80;11.55;;;9.60;88.70;;;;;;10755437;33;20021;-74
2023/01/10 19:11:20;;;;;;;12.82;8.88;;;9.60;88.70;;;;;;10755257;33;20021;-74
2023/01/10 19:17:23;;;;;;;15.40;10.43;;;9.70;88.50;;;;;;10754506;33;20343;-76
2023/01/10 19:23:25;;;;;;;9.90;8.02;;;9.70;88.20;;;;;;10754743;33;20024;-76
2023/01/10 19:29:29;;;;;;;12.40;8.60;;;9.60;88.10;;;;;;10754723;33;20441;-76
2023/01/10 19:35:34;;;;;;;13.05;8.07;;;9.50;88.20;;;;;;10754502;33;20098;-76
2023/01/10 19:41:37;;;;;;;10.50;7.70;;;9.50;88.30;;;;;;10754621;33;20029;-76
2023/01/10 19:47:39;;;;;;;11.38;8.23;;;9.40;88.00;;;;;;10754395;33;20449;-76
2023/01/10 19:53:44;;;;;;;12.48;8.55;;;9.30;87.90;;;;;;10754098;33;20335;-76
2023/01/10 19:59:50;;;;;;;10.77;7.62;;;9.30;87.90;;;;;;10752933;33;20039;-76
2023/01/10 20:05:52;;;;;;;12.48;8.15;;;9.30;87.80;;;;;;10753697;33;20059;-76
2023/01/10 20:11:55;;;;;;;11.12;9.23;;;9.20;87.60;;;;;;10753597;33;20009;-76
2023/01/10 20:17:57;;;;;;;13.82;11.10;;;9.10;87.50;;;;;;10753326;33;20025;-77
2023/01/10 20:23:58;;;;;;;12.43;9.15;;;9.10;87.60;;;;;;10753117;33;20020;-76
2023/01/10 20:30:01;;;;;;;15.45;11.20;;;9.00;87.50;;;;;;10752156;33;20044;-76
2023/01/10 20:36:06;;;;;;;14.20;10.00;;;9.00;87.50;;;;;;10752791;33;20009;-76
2023/01/10 20:42:08;;;;;;;13.40;9.50;;;9.00;87.30;;;;;;10752595;33;20024;-76
2023/01/10 20:48:10;;;;;;;13.55;9.45;;;8.90;87.20;;;;;;10752506;33;20391;-76
2023/01/10 20:54:12;;;;;;;10.55;8.73;;;8.80;86.90;;;;;;10752271;33;20024;-76
2023/01/10 21:00:16;;;;;;;15.93;13.77;;;8.70;87.00;;;;;;10752078;33;20021;-76
2023/01/10 21:06:20;;;;;;;14.18;10.45;;;8.40;87.00;;;;;;10751140;33;20024;-76
2023/01/10 21:12:23;;;;;;;13.62;11.63;;;8.40;87.20;;;;;;10751852;33;20005;-77
2023/01/10 21:18:30;;;;;;;14.38;12.88;;;8.40;87.00;;;;;;10751722;33;20024;-76
2023/01/10 21:24:32;;;;;;;15.70;12.55;;;8.40;86.80;;;;;;10751362;33;20025;-76
2023/01/10 21:30:38;;;;;;;21.60;15.23;;;8.30;86.60;;;;;;10751465;33;20025;-76
2023/01/10 21:36:41;;;;;;;23.60;18.48;;;8.40;86.60;;;;;;10750427;33;20012;-76
2023/01/10 21:42:44;;;;;;;20.02;14.65;;;8.50;86.80;;;;;;10750899;33;20017;-76
2023/01/10 21:48:46;;;;;;;20.15;15.93;;;8.40;86.50;;;;;;10751031;33;20433;-76
2023/01/10 21:54:48;;;;;;;19.75;13.93;;;8.40;86.20;;;;;;10751003;33;20025;-76
2023/01/10 22:00:55;;;;;;;17.12;13.85;;;8.20;86.10;;;;;;10750881;33;20044;-76
2023/01/10 22:06:57;;;;;;;18.08;14.35;;;8.20;85.90;;;;;;10746644;33;20021;-76
2023/01/10 22:12:59;;;;;;;22.70;17.37;;;8.20;85.90;;;;;;10750428;33;20016;-76
2023/01/10 22:19:01;;;;;;;22.55;16.70;;;8.10;85.90;;;;;;10750253;33;20048;-76
2023/01/10 22:25:03;;;;;;;21.20;16.37;;;8.00;85.90;;;;;;10750152;33;20008;-76
2023/01/10 22:31:06;;;;;;;21.55;16.12;;;8.00;85.50;;;;;;10750142;33;20021;-76
2023/01/10 22:37:08;;;;;;;20.75;13.90;;;8.10;85.40;;;;;;10736557;33;20028;-76
2023/01/10 22:43:10;;;;;;;17.33;13.93;;;8.10;85.40;;;;;;10749872;33;20072;-76
2023/01/10 22:49:12;;;;;;;17.62;11.35;;;8.00;86.00;;;;;;10749679;33;20039;-76
2023/01/10 22:55:15;;;;;;;15.88;12.93;;;7.90;86.20;;;;;;10752532;33;20024;-76
2023/01/10 23:01:19;;;;;;;15.30;12.50;;;7.90;85.90;;;;;;10753476;33;20273;-76
2023/01/10 23:07:21;;;;;;;16.35;12.25;;;7.70;86.10;;;;;;10755354;33;20021;-76
2023/01/10 23:13:24;;;;;;;15.25;12.32;;;7.70;85.80;;;;;;10755257;33;20350;-76
2023/01/10 23:19:26;;;;;;;17.12;13.15;;;7.60;85.70;;;;;;10754946;33;20016;-76
2023/01/10 23:25:28;;;;;;;17.02;12.85;;;7.30;85.70;;;;;;10754853;33;20013;-76
2023/01/10 23:31:30;;;;;;;19.67;15.20;;;7.20;85.90;;;;;;10754753;33;20067;-76
2023/01/10 23:37:32;;;;;;;18.08;14.32;;;7.20;85.80;;;;;;10736981;33;20028;-76
2023/01/10 23:43:34;;;;;;;45.38;16.37;;;7.40;85.90;;;;;;10753528;33;20023;-76
2023/01/10 23:49:36;;;;;;;15.15;12.13;;;7.40;85.80;;;;;;10754228;33;20055;-76
2023/01/10 23:55:38;;;;;;;17.98;14.68;;;7.30;85.70;;;;;;10754155;33;20047;-76
